createdAt,value
2023-06-11T00:02:07.528Z,1.00
2023-06-11T00:04:36.441Z,1.00
2023-06-11T00:07:03.667Z,1.00
2023-06-11T00:09:30.836Z,1.00
2023-06-11T00:11:58.168Z,1.00
2023-06-11T00:14:25.322Z,1.00
2023-06-11T00:16:52.721Z,1.00
2023-06-11T00:19:22.034Z,2.10
2023-06-11T00:21:50.275Z,7.50
2023-06-11T00:24:18.423Z,11.20
2023-06-11T00:26:45.885Z,16.30
2023-06-11T00:29:12.966Z,21.70
2023-06-11T00:31:40.107Z,24.80
2023-06-11T00:34:07.370Z,34.00
2023-06-11T00:36:35.267Z,41.90
2023-06-11T00:39:03.282Z,47.60
2023-06-11T00:41:32.121Z,68.60
2023-06-11T00:43:59.377Z,75.60
2023-06-11T00:46:27.247Z,82.70
2023-06-11T00:48:55.187Z,86.00
2023-06-11T00:51:26.710Z,89.80
2023-06-11T00:53:54.872Z,86.40
2023-06-11T00:56:22.150Z,81.00
2023-06-11T00:58:51.415Z,74.40
2023-06-11T01:01:27.827Z,69.60
2023-06-11T01:04:01.967Z,71.20
2023-06-11T01:06:32.240Z,68.10
2023-06-11T01:09:01.364Z,63.70
2023-06-11T01:11:29.631Z,63.90
2023-06-11T01:13:56.950Z,59.80
2023-06-11T01:16:38.316Z,58.50
2023-06-11T01:19:34.024Z,54.80
2023-06-11T01:22:14.459Z,40.40
2023-06-11T01:24:58.600Z,44.60
2023-06-11T01:27:57.454Z,47.00
2023-06-11T01:30:25.348Z,50.80
2023-06-11T01:32:54.477Z,52.10
2023-06-11T01:35:21.927Z,52.90
2023-06-11T01:37:56.604Z,56.60
2023-06-11T01:40:24.517Z,61.20
2023-06-11T01:42:51.896Z,65.00
2023-06-11T01:45:19.594Z,73.20
2023-06-11T01:47:47.181Z,65.70
2023-06-11T01:50:15.064Z,65.50
2023-06-11T01:52:42.414Z,65.30
2023-06-11T01:55:10.441Z,58.20
2023-06-11T01:57:38.507Z,52.40
2023-06-11T02:00:12.432Z,50.70
2023-06-11T02:02:41.983Z,52.70
2023-06-11T02:05:09.916Z,46.00
2023-06-11T02:07:37.694Z,41.50
2023-06-11T02:10:05.590Z,39.10
2023-06-11T02:12:32.718Z,40.50
2023-06-11T02:14:59.793Z,45.90
2023-06-11T02:17:26.933Z,38.60
2023-06-11T02:19:54.094Z,33.80
2023-06-11T02:22:21.178Z,29.00
2023-06-11T02:24:48.320Z,17.20
2023-06-11T02:27:15.399Z,12.30
2023-06-11T02:29:42.484Z,9.90
2023-06-11T02:32:10.084Z,13.20
2023-06-11T02:34:37.443Z,11.00
2023-06-11T02:37:05.084Z,10.60
2023-06-11T02:39:32.165Z,1.00
2023-06-11T02:41:59.359Z,4.40
2023-06-11T02:44:26.890Z,2.80
2023-06-11T02:46:53.955Z,5.00
2023-06-11T02:49:22.005Z,4.30
2023-06-11T02:51:49.139Z,7.30
2023-06-11T02:54:16.685Z,7.00
2023-06-11T02:56:43.747Z,11.30
2023-06-11T02:59:10.930Z,10.90
2023-06-11T03:01:39.977Z,7.10
2023-06-11T03:04:07.744Z,1.00
2023-06-11T03:06:35.123Z,1.00
2023-06-11T03:09:02.227Z,1.00
2023-06-11T03:11:29.515Z,1.00
2023-06-11T03:13:56.565Z,1.00
2023-06-11T03:16:23.634Z,1.00
2023-06-11T03:18:50.879Z,1.00
2023-06-11T03:21:18.076Z,1.00
2023-06-11T03:23:45.208Z,1.00
2023-06-11T03:26:12.318Z,1.00
2023-06-11T03:28:39.412Z,1.00
2023-06-11T03:31:06.592Z,1.00
2023-06-11T03:33:33.722Z,1.00
2023-06-11T03:36:00.807Z,1.00
2023-06-11T03:38:27.862Z,1.00
2023-06-11T03:40:54.978Z,1.00
2023-06-11T03:43:22.089Z,1.00
2023-06-11T03:45:49.192Z,1.00
2023-06-11T03:48:16.268Z,1.00
2023-06-11T03:50:43.441Z,1.00
2023-06-11T03:53:10.524Z,1.00
2023-06-11T03:55:37.576Z,1.00
2023-06-11T03:58:04.680Z,1.00
2023-06-11T04:00:33.635Z,1.00
2023-06-11T04:03:01.100Z,99.90
2023-06-11T04:05:28.283Z,99.90
2023-06-11T04:07:55.492Z,99.90
2023-06-11T04:10:23.850Z,99.90
2023-06-11T04:12:51.760Z,99.90
2023-06-11T04:15:18.818Z,99.90
2023-06-11T04:17:45.957Z,99.90
2023-06-11T04:20:13.509Z,99.90
2023-06-11T04:22:41.312Z,99.90
2023-06-11T04:25:09.094Z,99.90
2023-06-11T04:27:38.152Z,99.90
2023-06-11T04:30:06.536Z,99.90
2023-06-11T04:32:36.232Z,99.90
2023-06-11T04:35:04.285Z,99.90
2023-06-11T04:37:40.235Z,99.90
2023-06-11T04:40:10.573Z,99.90
2023-06-11T04:42:41.962Z,99.90
2023-06-11T04:45:12.826Z,99.90
2023-06-11T04:47:42.030Z,99.90
2023-06-11T04:50:09.968Z,99.90
2023-06-11T04:52:39.257Z,99.90
2023-06-11T04:55:07.646Z,99.90
2023-06-11T04:57:35.204Z,99.90
2023-06-11T05:00:03.173Z,99.90
2023-06-11T05:02:30.287Z,99.90
2023-06-11T05:04:58.934Z,99.90
2023-06-11T05:07:26.063Z,99.90
2023-06-11T05:09:53.077Z,99.90
2023-06-11T05:12:20.273Z,99.90
2023-06-11T05:14:47.472Z,99.90
2023-06-11T05:17:17.164Z,99.90
2023-06-11T05:19:44.672Z,99.90
2023-06-11T05:22:12.183Z,99.90
2023-06-11T05:24:42.901Z,93.10
2023-06-11T05:27:10.595Z,52.10
2023-06-11T05:29:39.214Z,18.70
2023-06-11T05:32:10.280Z,19.90
2023-06-11T05:34:38.721Z,17.00
2023-06-11T05:37:06.061Z,20.50
2023-06-11T05:39:33.224Z,17.60
2023-06-11T05:42:00.255Z,12.40
2023-06-11T05:44:27.345Z,14.40
2023-06-11T05:46:54.512Z,25.70
2023-06-11T05:49:21.606Z,14.40
2023-06-11T05:51:48.681Z,11.50
2023-06-11T05:54:16.115Z,5.30
2023-06-11T05:56:43.277Z,1.00
2023-06-11T05:59:10.337Z,1.00
2023-06-11T06:01:38.346Z,1.00
2023-06-11T06:04:06.202Z,1.00
2023-06-11T06:06:34.249Z,1.00
2023-06-11T06:09:01.447Z,1.00
2023-06-11T06:11:28.524Z,1.00
2023-06-11T06:13:55.592Z,1.00
2023-06-11T06:16:24.612Z,1.00
2023-06-11T06:18:53.290Z,1.00
2023-06-11T06:21:20.564Z,99.90
2023-06-11T06:23:47.686Z,99.90
2023-06-11T06:26:15.077Z,99.90
2023-06-11T06:28:42.195Z,99.90
2023-06-11T06:31:09.392Z,99.90
2023-06-11T06:33:39.325Z,99.90
2023-06-11T06:36:06.710Z,99.90
2023-06-11T06:38:34.170Z,99.90
2023-06-11T06:41:01.285Z,99.90
2023-06-11T06:43:28.430Z,99.90
2023-06-11T06:45:55.924Z,99.90
2023-06-11T06:48:24.750Z,99.90
2023-06-11T06:50:52.126Z,99.90
2023-06-11T06:53:19.281Z,99.90
2023-06-11T06:55:46.492Z,99.90
2023-06-11T06:58:13.551Z,99.90
2023-06-11T07:00:42.398Z,99.90
2023-06-11T07:03:10.625Z,99.90
2023-06-11T07:05:37.785Z,99.90
2023-06-11T07:08:05.256Z,99.90
2023-06-11T07:10:32.416Z,99.90
2023-06-11T07:13:00.571Z,99.90
2023-06-11T07:15:28.335Z,99.90
2023-06-11T07:17:55.535Z,99.90
2023-06-11T07:20:22.779Z,99.90
2023-06-11T07:22:49.897Z,99.90
2023-06-11T07:25:17.863Z,99.90
2023-06-11T07:27:45.333Z,99.90
2023-06-11T07:30:13.703Z,99.90
2023-06-11T07:32:41.496Z,99.90
2023-06-11T07:35:09.040Z,99.90
2023-06-11T07:37:36.534Z,99.90
2023-06-11T07:40:05.939Z,99.90
2023-06-11T07:42:32.986Z,99.90
2023-06-11T07:45:00.176Z,99.90
2023-06-11T07:47:27.334Z,99.90
2023-06-11T07:49:54.988Z,99.90
2023-06-11T07:52:22.305Z,99.90
2023-06-11T07:54:49.540Z,99.90
2023-06-11T07:57:17.081Z,99.90
2023-06-11T07:59:44.924Z,99.90
2023-06-11T08:02:12.719Z,99.90
2023-06-11T08:04:40.179Z,99.90
2023-06-11T08:07:08.161Z,99.90
2023-06-11T08:09:37.312Z,99.90
2023-06-11T08:12:05.868Z,99.90
2023-06-11T08:14:34.363Z,99.90
2023-06-11T08:17:02.264Z,99.90
2023-06-11T08:19:30.136Z,99.90
2023-06-11T08:21:57.740Z,99.90
2023-06-11T08:24:24.976Z,99.90
2023-06-11T08:26:52.123Z,99.90
2023-06-11T08:29:19.619Z,99.90
2023-06-11T08:31:47.110Z,99.90
2023-06-11T08:34:14.245Z,99.90
2023-06-11T08:36:45.144Z,99.90
2023-06-11T08:39:12.231Z,99.90
2023-06-11T08:41:39.584Z,99.90
2023-06-11T08:44:06.765Z,99.90
2023-06-11T08:46:37.479Z,99.90
2023-06-11T08:49:08.920Z,99.90
2023-06-11T08:51:40.948Z,99.90
2023-06-11T08:54:09.510Z,99.90
2023-06-11T08:56:37.214Z,99.90
2023-06-11T08:59:04.828Z,99.90
2023-06-11T09:01:34.805Z,99.90
2023-06-11T09:04:02.120Z,99.90
2023-06-11T09:06:29.571Z,99.90
2023-06-11T09:09:01.987Z,99.90
2023-06-11T09:11:33.929Z,99.90
2023-06-11T09:14:01.397Z,99.90
2023-06-11T09:16:28.999Z,99.90
2023-06-11T09:18:58.242Z,99.90
2023-06-11T09:21:26.400Z,99.90
2023-06-11T09:23:53.640Z,99.90
2023-06-11T09:26:20.873Z,99.90
2023-06-11T09:28:50.319Z,99.90
2023-06-11T09:31:20.937Z,99.90
2023-06-11T09:33:48.303Z,99.90
2023-06-11T09:36:18.213Z,99.90
2023-06-11T09:38:52.172Z,99.90
2023-06-11T09:41:20.767Z,99.90
2023-06-11T09:43:53.511Z,99.90
2023-06-11T09:46:22.285Z,99.90
2023-06-11T09:48:49.932Z,99.90
2023-06-11T09:51:22.928Z,99.90
2023-06-11T09:53:53.973Z,99.90
2023-06-11T09:56:22.169Z,99.90
2023-06-11T09:58:50.692Z,99.90
2023-06-11T10:01:18.959Z,99.90
2023-06-11T10:03:47.303Z,99.90
2023-06-11T10:06:24.136Z,99.90
2023-06-11T10:08:54.768Z,99.90
2023-06-11T10:11:24.150Z,99.90
2023-06-11T10:14:02.261Z,99.90
2023-06-11T10:16:32.455Z,99.90
2023-06-11T10:19:10.054Z,99.90
2023-06-11T10:21:52.965Z,99.90
2023-06-11T10:24:28.246Z,99.90
2023-06-11T10:27:14.240Z,99.90
2023-06-11T10:29:43.010Z,99.90
2023-06-11T10:32:18.906Z,99.90
2023-06-11T10:34:48.812Z,99.90
2023-06-11T10:37:16.676Z,99.90
2023-06-11T10:39:55.802Z,99.90
2023-06-11T10:42:36.131Z,99.90
2023-06-11T10:45:09.601Z,99.90
2023-06-11T10:47:43.925Z,99.90
2023-06-11T10:50:16.279Z,99.90
2023-06-11T10:52:57.199Z,99.90
2023-06-11T10:55:31.018Z,99.90
2023-06-11T10:57:59.186Z,99.90
2023-06-11T11:00:34.509Z,99.90
2023-06-11T11:03:07.163Z,99.90
2023-06-11T11:05:34.365Z,99.90
2023-06-11T11:08:02.636Z,99.90
2023-06-11T11:10:30.346Z,99.90
2023-06-11T11:12:57.554Z,99.90
2023-06-11T11:15:24.968Z,99.90
2023-06-11T11:17:52.593Z,99.90
2023-06-11T11:20:23.940Z,99.90
2023-06-11T11:22:56.836Z,99.90
2023-06-11T11:25:26.793Z,99.90
2023-06-11T11:27:53.884Z,99.90
2023-06-11T11:30:21.126Z,99.90
2023-06-11T11:32:48.381Z,99.90
2023-06-11T11:35:18.458Z,99.90
2023-06-11T11:37:51.992Z,99.90
2023-06-11T11:40:20.947Z,99.90
2023-06-11T11:42:52.544Z,99.90
2023-06-11T11:45:20.961Z,99.90
2023-06-11T11:47:53.315Z,99.90
2023-06-11T11:50:28.815Z,99.90
2023-06-11T11:53:07.116Z,99.90
2023-06-11T11:55:56.170Z,99.90
2023-06-11T11:58:28.551Z,99.90
2023-06-11T12:01:00.440Z,99.90
2023-06-11T12:03:28.555Z,99.90
2023-06-11T12:06:04.144Z,99.90
2023-06-11T12:08:33.145Z,99.90
2023-06-11T12:11:02.148Z,99.90
2023-06-11T12:13:29.341Z,99.90
2023-06-11T12:15:56.537Z,99.90
2023-06-11T12:18:23.692Z,99.90
2023-06-11T12:20:51.199Z,99.90
2023-06-11T12:23:18.358Z,99.90
2023-06-11T12:25:45.591Z,99.90
2023-06-11T12:28:12.678Z,99.90
2023-06-11T12:30:39.809Z,99.90
2023-06-11T12:33:06.902Z,99.90
2023-06-11T12:35:33.991Z,99.90
2023-06-11T12:38:02.247Z,99.90
2023-06-11T12:40:32.020Z,99.90
2023-06-11T12:43:00.943Z,99.90
2023-06-11T12:45:29.866Z,99.90
2023-06-11T12:47:58.050Z,99.90
2023-06-11T12:50:28.446Z,99.90
2023-06-11T12:52:56.641Z,99.90
2023-06-11T12:55:25.970Z,99.90
2023-06-11T12:57:53.240Z,99.90
2023-06-11T13:00:20.642Z,99.90
2023-06-11T13:02:47.899Z,99.90
2023-06-11T13:05:15.081Z,99.90
2023-06-11T13:07:42.567Z,99.90
2023-06-11T13:10:10.457Z,99.90
2023-06-11T13:12:37.875Z,99.90
2023-06-11T13:15:05.701Z,99.90
2023-06-11T13:17:33.056Z,99.90
2023-06-11T13:20:00.228Z,99.90
2023-06-11T13:22:27.370Z,99.90
2023-06-11T13:24:55.125Z,99.90
2023-06-11T13:27:22.170Z,99.90
2023-06-11T13:29:49.280Z,99.90
2023-06-11T13:32:17.069Z,99.90
2023-06-11T13:34:44.858Z,99.90
2023-06-11T13:37:12.134Z,99.90
2023-06-11T13:39:39.266Z,99.90
2023-06-11T13:42:06.763Z,99.90
2023-06-11T13:44:33.930Z,99.90
2023-06-11T13:47:01.512Z,99.90
2023-06-11T13:49:28.897Z,99.90
2023-06-11T13:51:56.012Z,99.90
2023-06-11T13:54:25.232Z,99.90
2023-06-11T13:56:52.416Z,99.90
2023-06-11T13:59:20.936Z,99.90
2023-06-11T14:01:48.287Z,99.90
2023-06-11T14:04:15.409Z,99.90
2023-06-11T14:06:42.496Z,99.90
2023-06-11T14:09:09.658Z,99.90
2023-06-11T14:11:37.163Z,99.90
2023-06-11T14:14:04.900Z,99.90
2023-06-11T14:16:32.009Z,99.90
2023-06-11T14:18:59.239Z,99.90
2023-06-11T14:21:26.422Z,99.90
2023-06-11T14:23:53.607Z,99.90
2023-06-11T14:26:20.947Z,99.90
2023-06-11T14:28:48.094Z,99.90
2023-06-11T14:31:15.268Z,99.90
2023-06-11T14:33:42.375Z,99.90
2023-06-11T14:36:09.473Z,99.90
2023-06-11T14:38:36.664Z,99.90
2023-06-11T14:41:04.540Z,99.90
2023-06-11T14:43:31.847Z,99.90
2023-06-11T14:45:59.111Z,99.90
2023-06-11T14:48:26.404Z,99.90
2023-06-11T14:50:53.552Z,99.90
2023-06-11T14:53:20.693Z,99.90
2023-06-11T14:55:50.068Z,99.90
2023-06-11T14:58:17.458Z,99.90
2023-06-11T15:00:44.497Z,99.90
2023-06-11T15:03:13.370Z,99.90
2023-06-11T15:05:41.821Z,99.90
2023-06-11T15:08:09.211Z,99.90
2023-06-11T15:10:38.659Z,99.90
2023-06-11T15:13:07.307Z,99.90
2023-06-11T15:15:34.382Z,99.90
2023-06-11T15:18:01.528Z,99.90
2023-06-11T15:20:28.739Z,99.90
2023-06-11T15:22:55.882Z,99.90
2023-06-11T15:25:23.246Z,99.90
2023-06-11T15:27:53.359Z,99.90
2023-06-11T15:30:21.197Z,99.90
2023-06-11T15:32:48.365Z,99.90
2023-06-11T15:35:15.983Z,99.90
2023-06-11T15:37:43.075Z,99.90
2023-06-11T15:40:11.090Z,99.90
2023-06-11T15:42:38.651Z,99.90
2023-06-11T15:45:10.133Z,99.90
2023-06-11T15:47:37.846Z,99.90
2023-06-11T15:50:07.414Z,99.90
2023-06-11T15:52:34.784Z,99.90
2023-06-11T15:55:02.289Z,99.90
2023-06-11T15:57:29.412Z,99.90
2023-06-11T15:59:56.559Z,99.90
2023-06-11T16:02:23.788Z,99.90
2023-06-11T16:04:52.449Z,99.90
2023-06-11T16:07:19.573Z,99.90
2023-06-11T16:09:48.000Z,99.90
2023-06-11T16:12:15.322Z,99.90
2023-06-11T16:14:43.189Z,99.90
2023-06-11T16:17:10.285Z,99.90
2023-06-11T16:19:37.371Z,99.90
2023-06-11T16:22:06.301Z,99.90
2023-06-11T16:24:33.361Z,99.90
2023-06-11T16:27:00.446Z,99.90
2023-06-11T16:29:27.585Z,99.90
2023-06-11T16:31:56.471Z,99.90
2023-06-11T16:34:23.634Z,99.90
2023-06-11T16:36:50.771Z,99.90
2023-06-11T16:39:27.427Z,99.90
2023-06-11T16:41:55.854Z,99.90
2023-06-11T16:44:23.075Z,99.90
2023-06-11T16:46:50.747Z,99.90
2023-06-11T16:49:18.277Z,99.90
2023-06-11T16:51:45.617Z,99.90
2023-06-11T16:54:13.285Z,99.90
2023-06-11T16:56:41.468Z,99.90
2023-06-11T16:59:08.624Z,99.80
2023-06-11T17:01:36.189Z,99.20
2023-06-11T17:04:03.445Z,99.90
2023-06-11T17:06:30.524Z,99.70
2023-06-11T17:08:57.635Z,98.70
2023-06-11T17:11:24.818Z,98.40
2023-06-11T17:13:53.566Z,97.20
2023-06-11T17:16:21.038Z,98.40
2023-06-11T17:18:48.201Z,99.20
2023-06-11T17:21:15.337Z,99.90
2023-06-11T17:23:43.066Z,99.50
2023-06-11T17:26:11.014Z,99.00
2023-06-11T17:28:38.225Z,97.40
2023-06-11T17:31:06.635Z,98.50
2023-06-11T17:33:33.636Z,99.90
2023-06-11T17:36:00.803Z,99.90
2023-06-11T17:38:28.017Z,99.90
2023-06-11T17:40:55.108Z,99.90
2023-06-11T17:43:22.388Z,99.90
2023-06-11T17:45:50.020Z,99.90
2023-06-11T17:48:18.733Z,99.90
2023-06-11T17:50:45.959Z,99.90
2023-06-11T17:53:13.277Z,99.90
2023-06-11T17:55:40.353Z,99.90
2023-06-11T17:58:07.738Z,99.90
2023-06-11T18:00:34.960Z,99.90
2023-06-11T18:03:02.187Z,99.90
2023-06-11T18:05:30.007Z,99.90
2023-06-11T18:07:57.156Z,99.90
2023-06-11T18:10:24.319Z,99.90
2023-06-11T18:12:51.730Z,99.90
2023-06-11T18:15:32.153Z,99.90
2023-06-11T18:18:01.477Z,99.90
2023-06-11T18:20:30.558Z,99.90
2023-06-11T18:22:58.794Z,99.90
2023-06-11T18:25:31.269Z,99.90
2023-06-11T18:28:00.462Z,99.90
2023-06-11T18:30:27.726Z,99.90
2023-06-11T18:32:54.968Z,99.90
2023-06-11T18:35:22.716Z,99.90
2023-06-11T18:37:49.858Z,99.90
2023-06-11T18:40:17.089Z,99.90
2023-06-11T18:42:44.309Z,99.90
2023-06-11T18:45:11.833Z,99.90
2023-06-11T18:47:41.017Z,99.90
2023-06-11T18:50:11.316Z,99.90
2023-06-11T18:52:39.280Z,99.90
2023-06-11T18:55:06.747Z,99.90
2023-06-11T18:57:33.895Z,99.90
2023-06-11T19:00:01.014Z,99.90
2023-06-11T19:02:28.185Z,99.90
2023-06-11T19:04:55.843Z,99.90
2023-06-11T19:07:23.034Z,99.90
2023-06-11T19:09:50.105Z,99.90
2023-06-11T19:12:17.408Z,99.90
2023-06-11T19:14:44.532Z,99.90
2023-06-11T19:17:12.265Z,99.90
2023-06-11T19:19:39.717Z,99.90
2023-06-11T19:22:06.904Z,99.90
2023-06-11T19:24:35.215Z,99.90
2023-06-11T19:27:02.629Z,99.90
2023-06-11T19:29:30.879Z,99.90
2023-06-11T19:31:58.143Z,99.90
2023-06-11T19:34:25.342Z,99.90
2023-06-11T19:36:52.467Z,99.90
2023-06-11T19:39:19.704Z,99.90
2023-06-11T19:41:46.824Z,99.90
2023-06-11T19:44:14.041Z,99.90
2023-06-11T19:46:41.167Z,99.90
2023-06-11T19:49:08.782Z,99.90
2023-06-11T19:51:35.976Z,99.90
2023-06-11T19:54:03.187Z,99.90
2023-06-11T19:56:31.090Z,99.90
2023-06-11T19:58:58.303Z,99.90
2023-06-11T20:01:26.040Z,99.90
2023-06-11T20:03:53.168Z,99.90
2023-06-11T20:06:21.007Z,99.90
2023-06-11T20:08:48.249Z,99.90
2023-06-11T20:11:18.698Z,99.90
2023-06-11T20:13:46.812Z,99.90
2023-06-11T20:16:14.588Z,99.90
2023-06-11T20:18:43.089Z,99.90
2023-06-11T20:21:10.443Z,99.90
2023-06-11T20:23:38.150Z,99.90
2023-06-11T20:26:05.649Z,99.90
2023-06-11T20:28:32.930Z,99.90
2023-06-11T20:31:04.684Z,1.00
2023-06-11T20:33:33.319Z,1.00
2023-06-11T20:36:00.468Z,1.00
2023-06-11T20:38:27.658Z,1.00
2023-06-11T20:40:54.814Z,1.00
2023-06-11T20:43:21.968Z,1.00
2023-06-11T20:45:57.654Z,1.00
2023-06-11T20:48:26.243Z,1.00
2023-06-11T20:50:53.684Z,1.00
2023-06-11T20:53:32.984Z,1.00
2023-06-11T20:56:01.705Z,1.00
2023-06-11T20:58:28.965Z,1.00
2023-06-11T21:00:56.013Z,1.00
2023-06-11T21:03:23.560Z,1.00
2023-06-11T21:05:51.743Z,1.00
2023-06-11T21:08:19.845Z,1.00
2023-06-11T21:10:47.576Z,1.00
2023-06-11T21:13:15.834Z,1.00
2023-06-11T21:15:43.378Z,1.00
2023-06-11T21:18:10.780Z,1.00
2023-06-11T21:20:39.640Z,1.00
2023-06-11T21:23:08.368Z,1.00
2023-06-11T21:25:35.955Z,1.00
2023-06-11T21:28:03.203Z,1.00
2023-06-11T21:30:30.427Z,1.00
2023-06-11T21:32:57.684Z,1.00
2023-06-11T21:35:24.804Z,1.00
2023-06-11T21:37:51.885Z,1.00
2023-06-11T21:40:19.052Z,1.00
2023-06-11T21:42:46.259Z,9.00
2023-06-11T21:45:13.474Z,21.10
2023-06-11T21:47:40.588Z,30.00
2023-06-11T21:50:08.039Z,27.70
2023-06-11T21:52:39.099Z,48.90
2023-06-11T21:55:08.401Z,64.20
2023-06-11T21:57:35.884Z,71.30
2023-06-11T22:00:12.541Z,91.40
2023-06-11T22:02:42.469Z,95.30
2023-06-11T22:05:11.297Z,99.90
2023-06-11T22:07:38.536Z,99.90
2023-06-11T22:10:06.283Z,99.90
2023-06-11T22:12:42.852Z,99.90
2023-06-11T22:15:12.650Z,99.90
2023-06-11T22:17:40.932Z,99.90
2023-06-11T22:20:10.449Z,99.90
2023-06-11T22:22:43.760Z,99.90
2023-06-11T22:25:12.388Z,99.90
2023-06-11T22:27:43.781Z,99.90
2023-06-11T22:30:12.419Z,99.90
2023-06-11T22:32:39.869Z,99.90
2023-06-11T22:35:07.406Z,99.90
2023-06-11T22:37:37.249Z,99.90
2023-06-11T22:40:09.106Z,99.90
2023-06-11T22:42:36.608Z,99.90
2023-06-11T22:45:03.917Z,99.90
2023-06-11T22:47:34.127Z,99.90
2023-06-11T22:50:02.016Z,99.90
2023-06-11T22:52:39.827Z,99.90
2023-06-11T22:55:11.219Z,99.90
2023-06-11T22:57:38.363Z,99.90
2023-06-11T23:00:06.359Z,99.90
2023-06-11T23:02:33.671Z,99.90
2023-06-11T23:05:01.110Z,99.90
2023-06-11T23:07:28.535Z,99.90
2023-06-11T23:09:56.351Z,99.90
2023-06-11T23:12:23.438Z,99.90
2023-06-11T23:14:50.489Z,99.90
2023-06-11T23:17:20.584Z,99.90
2023-06-11T23:19:47.847Z,99.90
2023-06-11T23:22:15.641Z,99.90
2023-06-11T23:24:46.508Z,99.90
2023-06-11T23:27:16.472Z,99.90
2023-06-11T23:29:44.932Z,99.90
2023-06-11T23:32:12.305Z,99.90
2023-06-11T23:34:39.964Z,99.90
2023-06-11T23:37:07.803Z,99.90
2023-06-11T23:39:35.273Z,99.90
2023-06-11T23:42:03.470Z,99.90
2023-06-11T23:44:30.639Z,99.90
2023-06-11T23:46:57.759Z,99.90
2023-06-11T23:49:24.820Z,99.90
2023-06-11T23:51:51.921Z,99.90
2023-06-11T23:54:19.050Z,99.90
2023-06-11T23:56:46.110Z,99.90
2023-06-11T23:59:13.483Z,99.90
